South Wardsboro, Vermont
Current Conditions -  °F | °C
As of 4:54 AM on Saturday 29 Nov 2014 (Local Time) from KDDH Reporting Station
Overcast Overcast  
Wind Chill: -9°   Ceiling: 11000
Heat Index: -9°   Visibility: 10mi
Dew Point: -11°   Wind: 0mph
Humidity: 84%   Direction: NA
Pressure: 30.23"   Gusts: NA
Location:  43.0205°N, 72.8064°W
Report Text: KDDH 290954Z AUTO 00000KT 10SM OVC110 M09/M11 A3023 RMK AO2 SLP250 T10891111
Loading
Personal Weather Stations






























Interactive Weather Map New forecast layout! Learn more

10-Day Weather Forecast

Advertisements
Track Severe Weather on mobile